Home > Products > Valid Products > TAF

000
FTUS45 KPIH 172300
TAFIDA
TAF
KIDA 172326Z 1800/1824 21010G20KT P6SM SCT150
     FM180200 19012KT P6SM BKN120
     FM180900 21015G25KT P6SM VCSH BKN040 OVC060
     FM181200 22020G30KT P6SM -SHRA SCT015 OVC025
     FM182100 22018G28KT P6SM VCSH SCT025 OVC050=



000
FTUS45 KPIH 172300
TAFBYI
TAF
KBYI 172326Z 1800/1824 19010G18KT P6SM SCT100
     FM180800 23012G22KT P6SM VCSH SCT040 OVC060
     FM181000 26020G30KT P6SM -SHRA BKN030 OVC050
     FM181900 27018G28KT P6SM VCSH SCT040 BKN070=



000
FTUS45 KPIH 172300
TAFSUN
TAF
KSUN 172326Z 1800/1824 13011KT P6SM FEW100 SCT150
     FM180300 30008KT P6SM SCT070 BKN120
     FM180900 31012KT P6SM -SHRA SCT030 OVC060
     FM181600 15012KT P6SM VCSH SCT040 BKN070
     FM182000 23012KT P6SM SCT070
      AMD LTD TO CLD VIS AND WIND 1805/1813=



000
FTUS45 KPIH 172300
TAFPIH
TAF
KPIH 172326Z 1800/1824 21011G20KT P6SM SCT150
     FM181000 22015G25KT P6SM VCSH SCT040 OVC060
     FM181300 25022G32KT P6SM -SHRA BKN030 OVC050
     FM182100 23011G20KT P6SM VCSH SCT040 OVC060=



000
FTUS45 KPIH 172200 AAA
TAFBYI
TAF AMD
KBYI 172208Z 1722/1818 19010G18KT P6SM SCT120
     FM181000 26015G25KT P6SM VCSH OVC050=



000
FTUS45 KPIH 172200 AAA
TAFPIH
TAF AMD
KPIH 172207Z 1722/1818 21011G20KT P6SM SCT150
     FM181000 22015G25KT P6SM VCSH OVC060
     FM181300 23022G32KT P6SM -SHRA OVC050=



000
FTUS45 KPIH 171700
TAFSUN
TAF
KSUN 171720Z 1718/1818 11011KT P6SM SCT150
     FM180300 31010KT P6SM SCT080 BKN120
     FM180900 31010KT P6SM VCSH SCT030 OVC060=



000
FTUS45 KPIH 171700
TAFPIH
TAF
KPIH 171720Z 1718/1818 23011G20KT P6SM SCT150
     FM181000 22015G25KT P6SM VCSH OVC060
     FM181300 23022G32KT P6SM -SHRA OVC050=



000
FTUS45 KPIH 171700
TAFIDA
TAF
KIDA 171720Z 1718/1818 21010G20KT P6SM SCT150
     FM180200 18010KT P6SM OVC120
     FM181000 21015G25KT P6SM -SHRA OVC040=



000
FTUS45 KPIH 171700
TAFBYI
TAF
KBYI 171720Z 1718/1818 22009KT P6SM SCT120
     FM181000 26015G25KT P6SM VCSH OVC050=



000
FTUS45 KPIH 171100
TAFSUN
TAF
KSUN 171120Z 1712/1812 31008KT P6SM SCT200
     FM171700 14009KT P6SM SCT120
     FM180300 31010KT P6SM SCT080 BKN120
     FM180900 31010KT P6SM VCSH BKN060 BKN090 OVC120
      AMD LTD TO CLD VIS AND WIND TIL 171300=



000
FTUS45 KPIH 171100
TAFIDA
TAF
KIDA 171120Z 1712/1812 21008KT P6SM SCT200
     FM171700 20014KT P6SM SCT150
     FM180800 21012KT P6SM BKN080 OVC120=



000
FTUS45 KPIH 171100
TAFPIH
TAF
KPIH 171120Z 1712/1812 18008KT P6SM SCT200
     FM171700 23014KT P6SM SCT150
     FM180800 20012KT P6SM BKN080 OVC120=



000
FTUS45 KPIH 171100
TAFBYI
TAF
KBYI 171120Z 1712/1812 22009KT P6SM SCT200
     FM171500 24012KT P6SM SCT150
     FM180800 24012KT P6SM BKN090 OVC120=



000
FTUS45 KPIH 170500
TAFIDA
TAF
KIDA 170520Z 1706/1806 VRB06KT P6SM SCT090
     FM171700 20014KT P6SM SCT150=



000
FTUS45 KPIH 170500
TAFPIH
TAF
KPIH 170520Z 1706/1806 VRB06KT P6SM SCT100
     FM171700 23014KT P6SM SCT150=



000
FTUS45 KPIH 170500
TAFSUN
TAF
KSUN 170520Z 1706/1806 31008KT P6SM SCT120
     FM171700 15009KT P6SM BKN100
     FM180300 31010KT P6SM SCT080 BKN150
      AMD LTD TO CLD VIS AND WIND TIL 171300=



000
FTUS45 KPIH 170500
TAFBYI
TAF
KBYI 170520Z 1706/1806 23007KT P6SM SCT100
     FM171500 21010KT P6SM SCT150=



000
FTUS45 KPIH 162300
TAFBYI
TAF
KBYI 162325Z 1700/1724 27012KT P6SM SCT100
     FM170200 23007KT P6SM SCT100
     FM171500 21010KT P6SM SCT150=



000
FTUS45 KPIH 162300
TAFIDA
TAF
KIDA 162325Z 1700/1724 22009KT P6SM SCT090
     FM170200 VRB06KT P6SM SCT090
     FM171700 20014KT P6SM SCT150=



000
FTUS45 KPIH 162300
TAFSUN
TAF
KSUN 162325Z 1700/1724 15007KT P6SM SCT100
     FM170300 31010KT P6SM SCT120
     FM171700 15009KT P6SM BKN100
      AMD LTD TO CLD VIS AND WIND 1705/1713=



000
FTUS45 KPIH 162300
TAFPIH
TAF
KPIH 162325Z 1700/1724 24012KT P6SM SCT100
     FM170200 VRB06KT P6SM SCT100
     FM171700 23014KT P6SM SCT150=



000
FTUS45 KPIH 161700
TAFIDA
TAF
KIDA 161720Z 1618/1718 22011KT P6SM BKN150
     FM170200 VRB06KT P6SM BKN150=



000
FTUS45 KPIH 161700
TAFBYI
TAF
KBYI 161720Z 1618/1718 27011KT P6SM BKN150
     FM170200 23007KT P6SM BKN120=



000
FTUS45 KPIH 161700
TAFPIH
TAF
KPIH 161720Z 1618/1718 27011KT P6SM BKN150
     FM170200 VRB06KT P6SM BKN150=



000
FTUS45 KPIH 161700
TAFSUN
TAF
KSUN 161720Z 1618/1718 15007KT P6SM BKN150
     FM170300 31010KT P6SM BKN120=



000
FTUS45 KPIH 161100
TAFIDA
TAF
KIDA 161120Z 1612/1712 34005KT P6SM BKN150
     FM161900 22012G20KT P6SM BKN150
     FM170200 20007KT P6SM BKN100=



000
FTUS45 KPIH 161100
TAFPIH
TAF
KPIH 161120Z 1612/1712 07008KT P6SM BKN150
     FM161900 25013G20KT P6SM BKN150
     FM170200 23008KT P6SM BKN100=



000
FTUS45 KPIH 161100
TAFSUN
TAF
KSUN 161120Z 1612/1712 30010KT P6SM BKN150
     FM161700 14008KT P6SM BKN120
     FM170300 31008KT P6SM BKN080
      AMD LTD TO CLD VIS AND WIND TIL 161300=



000
FTUS45 KPIH 161100
TAFBYI
TAF
KBYI 161120Z 1612/1712 26006KT P6SM BKN150
     FM161900 27011KT P6SM BKN150
     FM170200 23007KT P6SM BKN120=



000
FTUS45 KPIH 160500
TAFSUN
TAF
KSUN 160520Z 1606/1706 30011KT P6SM BKN150
     FM161700 14008KT P6SM BKN100
     FM170300 31008KT P6SM BKN080
      AMD LTD TO CLD VIS AND WIND TIL 161300=



000
FTUS45 KPIH 160500
TAFPIH
TAF
KPIH 160520Z 1606/1706 07008KT P6SM SCT150
     FM161900 25013G20KT P6SM BKN120
     FM170200 23008KT P6SM BKN100=



000
FTUS45 KPIH 160500
TAFBYI
TAF
KBYI 160520Z 1606/1706 24008KT P6SM SCT150
     FM161900 27011KT P6SM BKN100
     FM170200 23007KT P6SM BKN100=



000
FTUS45 KPIH 160500
TAFIDA
TAF
KIDA 160520Z 1606/1706 34008KT P6SM SCT150
     FM161900 22012G20KT P6SM BKN120
     FM170200 19007KT P6SM BKN100=



000
FTUS45 KPIH 160100 AAA
TAFIDA
TAF AMD
KIDA 160101Z 1601/1624 35022G30KT 5SM BLDU VCSH SCT040 BKN070
     FM160300 30015G23KT P6SM FEW070 SCT200
     FM160600 22008KT P6SM BKN150
     FM161900 22012G20KT P6SM BKN120=



000
FTUS45 KPIH 152300
TAFIDA
TAF
KIDA 152338Z 1600/1624 26022G30KT 6SM BLDU VCSH SCT040 BKN070
     FM160200 30015G23KT P6SM FEW070 SCT200
     FM160600 22008KT P6SM BKN150
     FM161900 22012G20KT P6SM BKN120=



000
FTUS45 KPIH 152300
TAFPIH
TAF
KPIH 152338Z 1600/1624 25033G42KT P6SM SCT030 BKN060
     FM160300 24016G25KT P6SM FEW070 SCT200
     FM160600 22009KT P6SM BKN150
     FM161900 25013G20KT P6SM BKN120=



000
FTUS45 KPIH 152300
TAFBYI
TAF
KBYI 152338Z 1600/1624 27025G36KT P6SM SCT080 BKN120
     FM160200 27013KT P6SM SCT080
     FM160600 24008KT P6SM BKN150=



000
FTUS45 KPIH 152300
TAFSUN
TAF
KSUN 152338Z 1600/1624 26016G25KT P6SM SCT200
     FM160300 30011KT P6SM BKN150
     FM161700 14008KT P6SM BKN100
      AMD LTD TO CLD VIS AND WIND 1605/1613=



000
FTUS45 KPIH 151900 AAB
TAFIDA
TAF AMD
KIDA 151919Z 1519/1618 23028G38KT 6SM BLDU VCSH SCT060 BKN090
     FM160200 25011KT P6SM FEW070 SCT200
     FM160600 VRB05KT P6SM BKN150=



000
FTUS45 KPIH 151800 AAA
TAFIDA
TAF AMD
KIDA 151839Z 1519/1618 22020G30KT P6SM BKN100
     FM152000 23025G35KT P6SM VCSH SCT060 BKN080
     FM160200 25011KT P6SM FEW070 SCT200
     FM160600 VRB05KT P6SM BKN150=



000
FTUS45 KPIH 151800 AAA
TAFPIH
TAF AMD
KPIH 151837Z 1519/1618 25028G38KT P6SM SCT060 BKN090
     FM160300 24015KT P6SM FEW070 SCT200
     FM160600 22007KT P6SM BKN150=



000
FTUS45 KPIH 151700
TAFBYI
TAF
KBYI 151720Z 1518/1618 23015KT P6SM BKN120
     FM151900 27022G32KT P6SM SCT080 BKN120
     FM160200 27013KT P6SM SCT080
     FM160600 24007KT P6SM BKN150=



000
FTUS45 KPIH 151700
TAFIDA
TAF
KIDA 151720Z 1518/1618 20015KT P6SM BKN120
     FM152000 23025G35KT P6SM VCSH SCT060 BKN080
     FM160200 25011KT P6SM FEW070 SCT200
     FM160600 VRB05KT P6SM BKN150=



000
FTUS45 KPIH 151700
TAFPIH
TAF
KPIH 151720Z 1518/1618 19020G30KT P6SM SCT080 BKN110
     FM151900 25018G26KT P6SM SCT070 BKN100
     FM152000 26028G38KT P6SM SCT060 BKN090
     FM160300 24015KT P6SM FEW070 SCT200
     FM160600 22007KT P6SM BKN150=



000
FTUS45 KPIH 151700
TAFSUN
TAF
KSUN 151720Z 1518/1618 15011KT P6SM BKN120
     FM151900 22015G22KT P6SM SCT050 BKN100
     FM152100 27017G27KT P6SM SCT200
     FM160300 30009KT P6SM BKN150=



000
FTUS45 KPIH 151700 AAA
TAFPIH
TAF AMD
KPIH 151701Z 1517/1612 19020G30KT P6SM BKN120
     FM151900 25018G26KT P6SM SCT070 BKN110
     FM152000 26027G37KT P6SM SCT060 BKN100
     FM160300 24015KT P6SM FEW070 SCT200
     FM160600 22007KT P6SM BKN150=



000
FTUS45 KPIH 151500 AAA
TAFBYI
TAF AMD
KBYI 151528Z 1515/1612 20015G25KT P6SM BKN120
     FM151700 27022G32KT P6SM SCT080 BKN120
     FM160200 27013KT P6SM SCT080
     FM160600 24007KT P6SM BKN150=



000
FTUS45 KPIH 151400 AAA
TAFPIH
TAF AMD
KPIH 151407Z 1514/1612 18012KT P6SM BKN200
     FM151700 25018G26KT P6SM SCT070 BKN120
     FM151900 26027G37KT P6SM SCT060 BKN100
     FM160300 24015KT P6SM SCT070
     FM160600 22007KT P6SM BKN150=



000
FTUS45 KPIH 151100
TAFBYI
TAF
KBYI 151120Z 1512/1612 22012KT P6SM BKN200
     FM151700 27022G28KT P6SM SCT080 BKN120
     FM160200 27013KT P6SM SCT080
     FM160600 24007KT P6SM BKN150=



000
FTUS45 KPIH 151100
TAFIDA
TAF
KIDA 151120Z 1512/1612 23007KT P6SM BKN200
     FM151700 20023G30KT P6SM SCT070 BKN120
     FM160200 25013KT P6SM SCT070
     FM160600 VRB05KT P6SM BKN150=



000
FTUS45 KPIH 151100
TAFPIH
TAF
KPIH 151120Z 1512/1612 19012KT P6SM BKN200
     FM151700 25018G26KT P6SM SCT070 BKN120
     FM151900 26027G37KT P6SM SCT060 BKN100
     FM160300 24015KT P6SM SCT070
     FM160600 22007KT P6SM BKN150=



000
FTUS45 KPIH 151100
TAFSUN
TAF
KSUN 151120Z 1512/1612 32009KT P6SM SCT200
     FM151700 22015G22KT P6SM SCT050 BKN100
     FM152100 27017G27KT P6SM SCT200
     FM160300 30009KT P6SM BKN150
      AMD LTD TO CLD VIS AND WIND TIL 151300=



000
FTUS45 KPIH 150700 AAA
TAFPIH
TAF AMD
KPIH 150735Z 1508/1606 19012KT P6SM SCT250
     FM151700 25018G26KT P6SM SCT070 BKN120
     FM151900 26027G37KT P6SM SCT060 BKN100
     FM160300 24015KT P6SM SCT070=



000
FTUS45 KPIH 150500
TAFIDA
TAF
KIDA 150520Z 1506/1606 19006KT P6SM SCT250
     FM151700 20023G30KT P6SM SCT070 BKN120
     FM160200 25013KT P6SM SCT070=



000
FTUS45 KPIH 150500
TAFPIH
TAF
KPIH 150520Z 1506/1606 21008KT P6SM SCT250
     FM151700 25018G26KT P6SM SCT070 BKN120
     FM151900 26027G37KT P6SM SCT060 BKN100
     FM160300 24015KT P6SM SCT070=



000
FTUS45 KPIH 150500
TAFBYI
TAF
KBYI 150520Z 1506/1606 22006KT P6SM SCT250
     FM151700 27022G28KT P6SM SCT080 BKN120
     FM160200 27013KT P6SM SCT080=



000
FTUS45 KPIH 150500
TAFSUN
TAF
KSUN 150520Z 1506/1606 31009KT P6SM SCT250
     FM151700 20015G22KT P6SM SCT050 BKN100
     FM152100 27017G27KT P6SM SCT200
     FM160300 30010KT P6SM SCT150
      AMD LTD TO CLD VIS AND WIND TIL 151300=



    US Dept of Commerce
    National Oceanic and Atmospheric Administration
    National Weather Service
    1325 East West Highway
    Silver Spring, MD 20910
    Page Author: NWS Internet Services Team
Disclaimer
Information Quality
Credits
Glossary
Privacy Policy
Freedom of Information Act (FOIA)
About Us
Career Opportunities